Terminal Aerodrome Forecast
Issued by NWS

Home | Current Version | Previous Version | Text Only | Print | Product List | Glossary On
Versions: 1 2 3 4 5 6 7 8 9 10 11 12 13 14 15 16
614
FTUS43 KDLH 202340
TAFHYR
TAF
KHYR 202340Z 2100/2124 VRB03KT 6SM -SHRA SCT015 OVC060
      TEMPO 2100/2103 3SM -SHRA BR BKN015
     FM210500 31004KT 4SM BR SCT007 OVC015
      TEMPO 2109/2112 2SM BR BKN007
     FM211300 30004KT P6SM SCT060=

USA.gov is the U.S. government's official web portal to all federal, state and local government web resources and services.